KTNU/TNU METAR and TAF weather

Enter ICAO airport designator
Station Type Date Time Source
KTNU METAR 2019/08/19 01:35 UTC NOAA

KTNU 190135Z AUTO 02004KT 10SM FEW070 SCT090 23/22 A2988 RMK AO2 PWINO


Station Type Date Time Source
KTNU Decoded METAR 2019/08/19 01:35 UTC NOAA

Station name not available
Aug 18, 2019 - 09:35 PM EDT / 2019.08.19 0135 UTC
Wind: from the NNE (020 degrees) at 5 MPH (4 KT):0
Visibility: 10 mile(s):0
Sky conditions: partly cloudy
Temperature: 73 F (23 C)
Dew Point: 71 F (22 C)
Relative Humidity: 94%
Pressure (altimeter): 29.88 in. Hg (1011 hPa)
ob: KTNU 190135Z AUTO 02004KT 10SM FEW070 SCT090 23/22 A2988 RMK AO2 PWINO
cycle: 1

Station Type Date Time Source
KTNU TAF UTC NOAA

Error!

Example: see airport list